createdAt,value
2023-03-26T00:00:28.898Z,51.00
2023-03-26T00:01:28.881Z,54.09
2023-03-26T00:02:28.916Z,56.31
2023-03-26T00:03:28.819Z,58.66
2023-03-26T00:04:28.827Z,46.40
2023-03-26T00:05:28.891Z,51.78
2023-03-26T00:06:28.871Z,55.19
2023-03-26T00:07:28.837Z,56.90
2023-03-26T00:08:28.780Z,58.54
2023-03-26T00:09:28.826Z,55.68
2023-03-26T00:10:28.862Z,50.54
2023-03-26T00:11:28.803Z,55.42
2023-03-26T00:12:28.751Z,46.42
2023-03-26T00:13:28.718Z,53.32
2023-03-26T00:14:28.804Z,58.63
2023-03-26T00:15:28.769Z,61.08
2023-03-26T00:16:28.820Z,47.69
2023-03-26T00:17:28.790Z,43.76
2023-03-26T00:18:29.421Z,50.03
2023-03-26T00:19:28.753Z,54.04
2023-03-26T00:20:28.672Z,57.18
2023-03-26T00:21:28.738Z,43.61
2023-03-26T00:22:28.722Z,44.98
2023-03-26T00:23:28.681Z,52.01
2023-03-26T00:24:28.685Z,50.03
2023-03-26T00:25:28.744Z,46.19
2023-03-26T00:26:28.650Z,56.96
2023-03-26T00:27:28.612Z,62.47
2023-03-26T00:28:28.651Z,44.25
2023-03-26T00:29:28.615Z,54.22
2023-03-26T00:30:28.682Z,54.74
2023-03-26T00:31:28.616Z,43.67
2023-03-26T00:32:28.625Z,48.02
2023-03-26T00:33:28.598Z,50.62
2023-03-26T00:34:28.653Z,52.46
2023-03-26T00:35:28.590Z,55.22
2023-03-26T00:36:28.609Z,51.85
2023-03-26T00:37:28.570Z,48.36
2023-03-26T00:38:28.593Z,56.49
2023-03-26T00:39:28.612Z,53.38
2023-03-26T00:40:28.557Z,49.14
2023-03-26T00:41:28.603Z,51.66
2023-03-26T00:42:28.514Z,54.63
2023-03-26T00:43:28.545Z,49.40
2023-03-26T00:44:28.578Z,50.81
2023-03-26T00:45:28.538Z,46.91
2023-03-26T00:46:28.524Z,56.95
2023-03-26T00:47:28.547Z,53.82
2023-03-26T00:48:38.285Z,48.38
2023-03-26T00:49:30.477Z,53.98
2023-03-26T00:50:28.475Z,44.10
2023-03-26T00:51:28.539Z,50.58
2023-03-26T00:52:28.425Z,53.89
2023-03-26T00:53:28.427Z,55.49
2023-03-26T00:54:28.488Z,46.55
2023-03-26T00:55:28.466Z,44.51
2023-03-26T00:56:28.426Z,49.48
2023-03-26T00:57:35.414Z,54.49
2023-03-26T00:58:30.380Z,52.68
2023-03-26T00:59:28.399Z,53.83
2023-03-26T01:00:28.379Z,51.87
2023-03-26T01:01:29.177Z,46.89
2023-03-26T01:02:28.391Z,50.36
2023-03-26T01:03:28.457Z,47.62
2023-03-26T01:04:29.956Z,51.52
2023-03-26T01:05:28.333Z,49.15
2023-03-26T01:06:28.423Z,44.36
2023-03-26T01:07:28.339Z,42.74
2023-03-26T01:08:28.311Z,42.74
2023-03-26T01:09:28.317Z,43.76
2023-03-26T01:10:28.298Z,55.60
2023-03-26T01:11:28.305Z,46.80
2023-03-26T01:12:28.336Z,47.23
2023-03-26T01:13:29.270Z,49.99
2023-03-26T01:14:28.253Z,48.34
2023-03-26T01:15:28.300Z,49.66
2023-03-26T01:16:28.259Z,44.19
2023-03-26T01:17:28.314Z,43.57
2023-03-26T01:18:28.245Z,51.96
2023-03-26T01:19:28.213Z,58.33
2023-03-26T01:20:28.247Z,46.62
2023-03-26T01:21:28.213Z,48.84
2023-03-26T01:22:28.303Z,53.89
2023-03-26T01:23:28.231Z,51.22
2023-03-26T01:24:29.218Z,44.66
2023-03-26T01:25:28.246Z,43.20
2023-03-26T01:26:28.158Z,57.92
2023-03-26T01:27:28.153Z,49.20
2023-03-26T01:28:28.177Z,52.05
2023-03-26T01:29:28.156Z,43.64
2023-03-26T01:30:28.146Z,56.47
2023-03-26T01:31:28.097Z,46.55
2023-03-26T01:32:28.223Z,44.67
2023-03-26T01:33:28.209Z,45.89
2023-03-26T01:34:28.118Z,47.73
2023-03-26T01:35:28.103Z,44.01
2023-03-26T01:36:28.066Z,49.54
2023-03-26T01:37:28.086Z,43.63
2023-03-26T01:38:28.049Z,50.95
2023-03-26T01:39:28.047Z,49.39
2023-03-26T01:40:28.031Z,43.77
2023-03-26T01:41:28.050Z,45.17
2023-03-26T01:42:28.042Z,53.06
2023-03-26T01:43:29.028Z,47.37
2023-03-26T01:44:28.007Z,56.83
2023-03-26T01:45:28.001Z,44.17
2023-03-26T01:46:28.058Z,43.67
2023-03-26T01:47:28.010Z,43.12
2023-03-26T01:48:28.010Z,48.43
2023-03-26T01:49:27.992Z,49.39
2023-03-26T01:50:27.986Z,49.62
2023-03-26T01:51:27.952Z,44.09
2023-03-26T01:52:27.971Z,44.81
2023-03-26T01:53:28.908Z,44.87
2023-03-26T01:54:27.950Z,51.93
2023-03-26T01:55:27.916Z,48.13
2023-03-26T01:56:27.951Z,46.68
2023-03-26T01:57:27.944Z,49.24
2023-03-26T01:58:27.923Z,50.09
2023-03-26T01:59:27.921Z,43.12
2023-03-26T02:00:27.923Z,47.76
2023-03-26T02:01:27.969Z,43.04
2023-03-26T02:02:28.075Z,51.44
2023-03-26T02:03:27.990Z,50.68
2023-03-26T02:04:27.889Z,43.90
2023-03-26T02:05:27.896Z,48.66
2023-03-26T02:06:27.916Z,43.08
2023-03-26T02:07:27.854Z,42.01
2023-03-26T02:08:27.846Z,49.36
2023-03-26T02:09:27.820Z,48.51
2023-03-26T02:10:27.812Z,42.60
2023-03-26T02:11:35.529Z,49.52
2023-03-26T02:12:29.859Z,42.68
2023-03-26T02:13:27.817Z,51.78
2023-03-26T02:14:27.822Z,43.22
2023-03-26T02:15:27.776Z,48.99
2023-03-26T02:16:27.831Z,42.36
2023-03-26T02:17:27.810Z,42.65
2023-03-26T02:18:27.742Z,41.95
2023-03-26T02:19:27.758Z,41.76
2023-03-26T02:20:27.720Z,41.34
2023-03-26T02:21:27.734Z,41.34
2023-03-26T02:22:27.923Z,41.49
2023-03-26T02:23:27.739Z,43.20
2023-03-26T02:24:27.751Z,49.08
2023-03-26T02:25:27.710Z,46.33
2023-03-26T02:26:27.696Z,45.70
2023-03-26T02:27:27.960Z,43.51
2023-03-26T02:28:27.669Z,44.40
2023-03-26T02:29:27.695Z,43.97
2023-03-26T02:30:27.672Z,45.48
2023-03-26T02:31:27.685Z,43.10
2023-03-26T02:32:29.283Z,41.63
2023-03-26T02:33:28.611Z,41.49
2023-03-26T02:34:27.633Z,41.68
2023-03-26T02:35:27.684Z,45.14
2023-03-26T02:36:27.808Z,60.41
2023-03-26T02:37:28.578Z,46.75
2023-03-26T02:38:27.638Z,42.57
2023-03-26T02:39:27.686Z,45.87
2023-03-26T02:40:27.558Z,48.12
2023-03-26T02:41:27.571Z,44.65
2023-03-26T02:42:27.560Z,46.93
2023-03-26T02:43:27.710Z,53.23
2023-03-26T02:44:27.561Z,48.41
2023-03-26T02:45:27.533Z,46.32
2023-03-26T02:46:27.586Z,54.00
2023-03-26T02:47:27.786Z,41.46
2023-03-26T02:48:27.637Z,41.56
2023-03-26T02:49:27.565Z,41.63
2023-03-26T02:50:27.493Z,42.93
2023-03-26T02:51:27.486Z,42.70
2023-03-26T02:52:27.479Z,44.23
2023-03-26T02:53:27.462Z,43.50
2023-03-26T02:54:27.486Z,43.17
2023-03-26T02:55:27.484Z,49.97
2023-03-26T02:56:27.482Z,51.10
2023-03-26T02:57:27.443Z,50.67
2023-03-26T02:58:27.443Z,43.23
2023-03-26T02:59:27.444Z,52.97
2023-03-26T03:00:27.418Z,41.53
2023-03-26T03:01:27.438Z,42.90
2023-03-26T03:02:27.515Z,49.05
2023-03-26T03:03:27.429Z,49.61
2023-03-26T03:04:27.451Z,43.41
2023-03-26T03:05:27.372Z,43.63
2023-03-26T03:06:27.404Z,49.84
2023-03-26T03:07:27.430Z,50.58
2023-03-26T03:08:27.380Z,41.53
2023-03-26T03:09:27.335Z,45.01
2023-03-26T03:10:27.342Z,49.33
2023-03-26T03:11:27.332Z,44.45
2023-03-26T03:12:27.395Z,44.13
2023-03-26T03:13:27.345Z,44.83
2023-03-26T03:14:27.333Z,45.92
2023-03-26T03:15:27.324Z,41.56
2023-03-26T03:16:27.354Z,50.23
2023-03-26T03:17:27.286Z,41.81
2023-03-26T03:18:27.316Z,44.91
2023-03-26T03:19:27.277Z,42.57
2023-03-26T03:20:27.265Z,42.11
2023-03-26T03:21:27.237Z,55.78
2023-03-26T03:22:27.231Z,49.65
2023-03-26T03:23:27.263Z,42.05
2023-03-26T03:24:27.237Z,41.37
2023-03-26T03:25:27.215Z,41.48
2023-03-26T03:26:27.237Z,41.41
2023-03-26T03:27:27.223Z,41.24
2023-03-26T03:28:27.252Z,41.59
2023-03-26T03:29:27.200Z,50.21
2023-03-26T03:30:27.186Z,44.43
2023-03-26T03:31:27.209Z,55.10
2023-03-26T03:32:27.248Z,46.98
2023-03-26T03:33:27.263Z,46.01
2023-03-26T03:34:27.173Z,50.88
2023-03-26T03:35:27.178Z,41.31
2023-03-26T03:36:27.145Z,54.08
2023-03-26T03:37:27.123Z,43.30
2023-03-26T03:38:27.102Z,43.10
2023-03-26T03:39:28.171Z,43.63
2023-03-26T03:40:27.113Z,59.20
2023-03-26T03:41:28.119Z,49.81
2023-03-26T03:42:27.112Z,52.52
2023-03-26T03:43:27.120Z,50.81
2023-03-26T03:44:27.084Z,47.47
2023-03-26T03:45:27.099Z,58.31
2023-03-26T03:46:27.105Z,52.23
2023-03-26T04:03:38.275Z,44.13
2023-03-26T04:04:38.136Z,52.10
2023-03-26T04:05:39.239Z,52.59
2023-03-26T04:06:39.245Z,61.18
2023-03-26T04:07:39.206Z,46.22
2023-03-26T04:08:39.205Z,46.63
2023-03-26T04:09:39.166Z,47.03
2023-03-26T04:10:39.175Z,47.63
2023-03-26T04:11:39.180Z,46.98
2023-03-26T04:12:39.157Z,52.12
2023-03-26T04:13:39.149Z,55.84
2023-03-26T04:14:39.148Z,55.64
2023-03-26T04:15:39.174Z,48.15
2023-03-26T04:16:39.135Z,50.59
2023-03-26T04:17:39.247Z,53.69
2023-03-26T04:18:39.124Z,57.27
2023-03-26T04:19:39.123Z,55.02
2023-03-26T04:20:39.093Z,51.14
2023-03-26T04:21:39.080Z,54.40
2023-03-26T04:22:39.091Z,50.18
2023-03-26T04:23:39.101Z,50.26
2023-03-26T04:24:39.065Z,55.36
2023-03-26T04:25:39.086Z,56.81
2023-03-26T04:26:39.090Z,50.89
2023-03-26T04:27:39.034Z,54.20
2023-03-26T04:28:39.055Z,50.68
2023-03-26T04:29:39.016Z,51.23
2023-03-26T04:30:39.036Z,60.95
2023-03-26T04:31:39.029Z,51.05
2023-03-26T04:32:39.030Z,54.77
2023-03-26T04:33:39.002Z,50.57
2023-03-26T04:34:39.011Z,54.55
2023-03-26T04:35:38.997Z,48.42
2023-03-26T04:36:38.975Z,47.54
2023-03-26T04:37:38.986Z,47.48
2023-03-26T04:38:38.980Z,54.44
2023-03-26T04:39:38.979Z,49.02
2023-03-26T04:40:38.967Z,57.41
2023-03-26T04:41:38.947Z,47.12
2023-03-26T04:42:38.939Z,45.47
2023-03-26T04:43:38.943Z,53.83
2023-03-26T04:44:38.933Z,60.82
2023-03-26T04:45:38.904Z,50.64
2023-03-26T04:46:38.930Z,50.58
2023-03-26T04:47:38.893Z,44.03
2023-03-26T04:48:38.899Z,43.61
2023-03-26T04:49:38.898Z,45.60
2023-03-26T04:50:38.870Z,55.58
2023-03-26T04:51:38.893Z,52.83
2023-03-26T04:52:39.845Z,51.23
2023-03-26T04:53:38.857Z,45.00
2023-03-26T04:54:39.787Z,45.98
2023-03-26T04:55:38.837Z,47.81
2023-03-26T04:56:39.900Z,47.35
2023-03-26T04:57:38.841Z,50.74
2023-03-26T04:58:38.807Z,44.60
2023-03-26T04:59:38.795Z,43.81
2023-03-26T05:00:38.798Z,44.14
2023-03-26T05:01:38.818Z,53.43
2023-03-26T05:02:38.790Z,53.13
2023-03-26T05:03:38.767Z,46.27
2023-03-26T05:04:38.799Z,55.42
2023-03-26T05:05:39.283Z,50.01
2023-03-26T05:06:38.767Z,57.33
2023-03-26T05:07:38.721Z,51.53
2023-03-26T05:08:38.738Z,52.08
2023-03-26T05:09:38.701Z,46.84
2023-03-26T05:10:38.712Z,50.65
2023-03-26T05:11:39.313Z,46.68
2023-03-26T05:12:38.695Z,48.68
2023-03-26T05:13:38.731Z,60.95
2023-03-26T05:14:38.682Z,53.82
2023-03-26T05:15:38.721Z,55.65
2023-03-26T05:16:38.695Z,52.21
2023-03-26T05:17:38.676Z,46.69
2023-03-26T05:18:39.629Z,49.77
2023-03-26T05:19:38.640Z,55.12
2023-03-26T05:20:38.629Z,56.73
2023-03-26T05:21:38.613Z,55.94
2023-03-26T05:22:38.619Z,58.06
2023-03-26T05:23:38.607Z,43.31
2023-03-26T05:24:38.596Z,46.93
2023-03-26T05:25:38.598Z,53.31
2023-03-26T05:26:38.580Z,54.48
2023-03-26T05:27:38.584Z,49.05
2023-03-26T05:28:38.570Z,55.58
2023-03-26T05:29:38.563Z,54.84
2023-03-26T05:30:38.554Z,56.28
2023-03-26T05:31:38.560Z,53.62
2023-03-26T05:32:38.632Z,47.49
2023-03-26T05:33:38.617Z,60.90
2023-03-26T05:34:38.518Z,56.32
2023-03-26T05:35:38.558Z,52.66
2023-03-26T05:36:38.530Z,50.37
2023-03-26T05:37:38.542Z,50.96
2023-03-26T05:38:38.539Z,49.68
2023-03-26T05:39:38.517Z,56.03
2023-03-26T05:40:39.297Z,54.98
2023-03-26T05:41:38.483Z,55.32
2023-03-26T05:42:38.468Z,62.56
2023-03-26T05:43:38.488Z,61.28
2023-03-26T05:44:38.457Z,56.51
2023-03-26T05:45:38.436Z,51.24
2023-03-26T05:46:38.422Z,51.71
2023-03-26T05:47:38.469Z,44.57
2023-03-26T05:48:38.415Z,51.74
2023-03-26T05:49:38.441Z,58.27
2023-03-26T05:50:38.386Z,51.33
2023-03-26T05:51:38.387Z,53.58
2023-03-26T05:52:38.373Z,44.99
2023-03-26T05:53:38.401Z,53.54
2023-03-26T05:54:38.400Z,52.53
2023-03-26T05:55:38.365Z,52.63
2023-03-26T05:56:38.409Z,51.80
2023-03-26T05:57:38.359Z,50.99
2023-03-26T05:58:38.356Z,62.02
2023-03-26T05:59:38.342Z,56.07
2023-03-26T06:00:38.348Z,49.61
2023-03-26T06:01:38.311Z,54.82
2023-03-26T06:02:38.338Z,52.97
2023-03-26T06:03:38.637Z,44.94
2023-03-26T06:04:38.411Z,50.69
2023-03-26T06:05:39.321Z,49.90
2023-03-26T06:06:38.342Z,58.27
2023-03-26T06:07:38.261Z,46.94
2023-03-26T06:08:38.272Z,51.10
2023-03-26T06:09:38.262Z,55.90
2023-03-26T06:10:38.305Z,54.64
2023-03-26T06:11:38.239Z,52.08
2023-03-26T06:12:38.254Z,45.23
2023-03-26T06:13:41.039Z,50.54
2023-03-26T06:14:38.204Z,49.05
2023-03-26T06:15:38.250Z,53.36
2023-03-26T06:16:38.210Z,52.93
2023-03-26T06:17:38.842Z,63.77
2023-03-26T06:18:38.228Z,55.97
2023-03-26T06:19:38.176Z,44.02
2023-03-26T06:20:38.199Z,43.92
2023-03-26T06:21:38.159Z,52.96
2023-03-26T06:22:38.177Z,47.96
2023-03-26T06:23:38.152Z,61.66
2023-03-26T06:24:38.126Z,65.87
2023-03-26T06:25:38.193Z,61.04
2023-03-26T06:26:38.144Z,62.11
2023-03-26T06:27:38.137Z,56.21
2023-03-26T06:28:38.111Z,61.96
2023-03-26T06:29:38.093Z,54.37
2023-03-26T06:30:38.118Z,55.63
2023-03-26T06:31:38.174Z,53.38
2023-03-26T06:32:38.153Z,63.97
2023-03-26T06:33:38.137Z,55.29
2023-03-26T06:34:38.068Z,50.88
2023-03-26T06:35:38.086Z,59.15
2023-03-26T06:36:38.070Z,62.43
2023-03-26T06:37:38.052Z,52.83
2023-03-26T06:38:38.056Z,58.30
2023-03-26T06:39:38.019Z,57.89
2023-03-26T06:40:38.030Z,62.82
2023-03-26T06:41:38.007Z,44.40
2023-03-26T06:43:08.108Z,62.20
2023-03-26T06:43:39.026Z,57.30
2023-03-26T06:44:38.008Z,56.97
2023-03-26T06:45:37.999Z,60.00
2023-03-26T06:46:38.037Z,56.58
2023-03-26T06:47:38.006Z,58.92
2023-03-26T06:48:38.018Z,55.41
2023-03-26T06:49:38.085Z,53.09
2023-03-26T06:50:37.937Z,46.65
2023-03-26T06:51:37.940Z,61.08
2023-03-26T06:52:37.938Z,54.37
2023-03-26T06:53:37.963Z,53.63
2023-03-26T06:54:37.967Z,55.69
2023-03-26T06:55:37.904Z,48.94
2023-03-26T06:56:37.901Z,58.53
2023-03-26T06:57:37.885Z,61.76
2023-03-26T06:58:37.895Z,59.26
2023-03-26T06:59:37.919Z,46.67
2023-03-26T07:00:37.982Z,59.75
2023-03-26T07:01:37.903Z,58.31
2023-03-26T07:02:37.873Z,59.62
2023-03-26T07:03:37.907Z,60.56
2023-03-26T07:04:38.060Z,57.19
2023-03-26T07:05:37.878Z,57.82
2023-03-26T07:06:37.858Z,62.77
2023-03-26T07:07:46.001Z,59.69
2023-03-26T07:08:38.936Z,52.18
2023-03-26T07:09:37.847Z,67.21
2023-03-26T07:10:37.798Z,52.77
2023-03-26T07:11:37.801Z,57.30
2023-03-26T07:12:37.832Z,57.72
2023-03-26T07:13:38.814Z,59.08
2023-03-26T07:14:37.829Z,47.48
2023-03-26T07:15:37.838Z,56.03
2023-03-26T07:16:38.045Z,54.36
2023-03-26T07:17:37.796Z,53.52
2023-03-26T07:18:39.665Z,57.31
2023-03-26T07:19:37.764Z,66.06
2023-03-26T07:20:37.747Z,64.26
2023-03-26T07:21:37.707Z,62.89
2023-03-26T07:22:37.850Z,64.81
2023-03-26T07:23:37.736Z,60.28
2023-03-26T07:24:37.733Z,54.22
2023-03-26T07:25:37.713Z,57.80
2023-03-26T07:26:37.714Z,55.04
2023-03-26T07:27:37.695Z,54.25
2023-03-26T07:28:37.697Z,56.67
2023-03-26T07:29:37.652Z,64.27
2023-03-26T07:30:37.672Z,57.02
2023-03-26T07:31:37.780Z,51.57
2023-03-26T07:32:37.665Z,53.40
2023-03-26T07:33:37.672Z,54.21
2023-03-26T07:34:37.634Z,52.40
2023-03-26T07:35:37.678Z,61.99
2023-03-26T07:36:37.607Z,61.99
2023-03-26T07:37:37.617Z,66.06
2023-03-26T07:38:37.579Z,58.84
2023-03-26T07:39:37.566Z,60.66
2023-03-26T07:40:37.557Z,64.81
2023-03-26T07:41:37.592Z,60.09
2023-03-26T07:42:37.583Z,61.77
2023-03-26T07:43:37.579Z,61.68
2023-03-26T07:44:37.550Z,59.85
2023-03-26T07:45:37.546Z,63.42
2023-03-26T07:46:37.532Z,62.41
2023-03-26T07:47:37.567Z,63.27
2023-03-26T07:48:37.587Z,62.14
2023-03-26T07:49:37.496Z,58.50
2023-03-26T07:50:37.478Z,60.16
2023-03-26T07:51:37.483Z,55.91
2023-03-26T07:52:37.535Z,57.17
2023-03-26T07:53:37.480Z,62.72
2023-03-26T07:54:37.449Z,66.39
2023-03-26T07:55:37.466Z,64.07
2023-03-26T07:56:37.509Z,65.53
2023-03-26T07:57:37.534Z,64.56
2023-03-26T07:58:37.423Z,64.21
2023-03-26T07:59:37.440Z,62.38
2023-03-26T08:00:37.405Z,64.99
2023-03-26T08:01:37.392Z,67.08
2023-03-26T08:02:37.417Z,62.33
2023-03-26T08:03:37.626Z,64.74
2023-03-26T08:04:37.472Z,59.85
2023-03-26T08:05:37.347Z,60.94
2023-03-26T08:06:37.350Z,64.20
2023-03-26T08:07:37.349Z,64.82
2023-03-26T08:08:37.342Z,58.88
2023-03-26T08:09:37.362Z,67.03
2023-03-26T08:10:37.360Z,60.15
2023-03-26T08:11:37.312Z,66.35
2023-03-26T08:12:37.323Z,62.18
2023-03-26T08:13:37.324Z,60.87
2023-03-26T08:14:37.342Z,66.60
2023-03-26T08:15:37.391Z,62.05
2023-03-26T08:16:37.262Z,67.15
2023-03-26T08:17:37.301Z,60.85
2023-03-26T08:18:37.254Z,57.77
2023-03-26T08:19:37.261Z,66.01
2023-03-26T08:20:37.277Z,61.96
2023-03-26T08:21:37.293Z,64.29
2023-03-26T08:22:37.226Z,54.87
2023-03-26T08:23:37.209Z,52.43
2023-03-26T08:24:38.229Z,68.06
2023-03-26T08:25:38.210Z,62.90
2023-03-26T08:26:38.245Z,68.68
2023-03-26T08:27:37.214Z,64.99
2023-03-26T08:28:37.190Z,65.74
2023-03-26T08:29:37.163Z,60.73
2023-03-26T08:30:37.164Z,58.48
2023-03-26T08:31:37.220Z,62.51
2023-03-26T08:32:37.170Z,63.26
2023-03-26T08:33:38.583Z,64.03
2023-03-26T08:34:37.126Z,64.48
2023-03-26T08:35:37.234Z,67.09
2023-03-26T08:36:37.112Z,67.05
2023-03-26T08:37:37.151Z,52.51
2023-03-26T08:38:37.113Z,70.15
2023-03-26T08:39:37.102Z,67.46
2023-03-26T08:40:37.094Z,69.84
2023-03-26T08:41:37.172Z,61.10
2023-03-26T08:42:37.088Z,55.60
2023-03-26T08:43:37.089Z,59.45
2023-03-26T08:44:37.094Z,62.28
2023-03-26T08:45:37.213Z,63.75
2023-03-26T08:46:37.107Z,60.45
2023-03-26T08:47:37.115Z,62.43
2023-03-26T08:48:37.110Z,57.30
2023-03-26T08:49:37.033Z,64.82
2023-03-26T08:50:37.063Z,63.25
2023-03-26T08:51:37.007Z,64.40
2023-03-26T08:52:37.098Z,69.03
2023-03-26T08:53:37.069Z,63.14
2023-03-26T08:54:37.019Z,68.84
2023-03-26T08:55:38.005Z,70.80
2023-03-26T08:56:37.022Z,61.41
2023-03-26T08:57:36.989Z,65.98
2023-03-26T08:58:37.022Z,67.22
2023-03-26T08:59:36.972Z,67.19
2023-03-26T09:00:36.937Z,64.95
2023-03-26T09:01:36.979Z,60.01
2023-03-26T09:02:36.926Z,60.35
2023-03-26T09:03:36.967Z,62.99
2023-03-26T09:04:36.967Z,63.04
2023-03-26T09:05:36.968Z,65.92
2023-03-26T09:06:37.744Z,66.05
2023-03-26T09:07:36.892Z,62.77
2023-03-26T09:08:36.875Z,66.99
2023-03-26T09:09:36.965Z,57.04
2023-03-26T09:10:36.897Z,67.69
2023-03-26T09:11:36.848Z,63.63
2023-03-26T09:12:36.871Z,62.04
2023-03-26T09:13:36.851Z,67.46
2023-03-26T09:14:36.849Z,67.59
2023-03-26T09:15:36.859Z,60.57
2023-03-26T09:16:36.856Z,61.93
2023-03-26T09:17:37.843Z,64.93
2023-03-26T09:18:36.842Z,60.74
2023-03-26T09:19:36.791Z,67.83
2023-03-26T09:20:36.768Z,61.17
2023-03-26T09:21:36.835Z,65.96
2023-03-26T09:22:36.771Z,69.40
2023-03-26T09:23:36.753Z,63.96
2023-03-26T09:24:36.759Z,61.96
2023-03-26T09:25:36.868Z,65.73
2023-03-26T09:26:36.789Z,70.45
2023-03-26T09:27:36.715Z,59.68
2023-03-26T09:28:36.727Z,70.32
2023-03-26T09:29:36.733Z,58.04
2023-03-26T09:30:36.726Z,64.81
2023-03-26T09:32:08.672Z,64.55
2023-03-26T09:32:36.729Z,67.36
2023-03-26T09:33:36.733Z,69.25
2023-03-26T09:34:36.675Z,64.78
2023-03-26T09:35:36.705Z,63.08
2023-03-26T09:36:36.647Z,67.56
2023-03-26T09:37:56.391Z,70.24
2023-03-26T09:38:37.623Z,63.72
2023-03-26T09:39:36.644Z,73.06
2023-03-26T09:40:36.681Z,67.16
2023-03-26T09:41:36.645Z,62.99
2023-03-26T09:42:36.644Z,65.74
2023-03-26T09:43:36.620Z,69.53
2023-03-26T09:44:36.624Z,69.83
2023-03-26T09:45:36.678Z,66.38
2023-03-26T09:46:36.553Z,69.31
2023-03-26T09:47:36.616Z,70.32
2023-03-26T09:48:37.315Z,70.47
2023-03-26T09:49:36.547Z,71.48
2023-03-26T09:50:37.427Z,58.66
2023-03-26T09:51:36.539Z,73.92
2023-03-26T09:52:36.586Z,57.50
2023-03-26T09:53:36.527Z,69.97
2023-03-26T09:54:36.582Z,61.36
2023-03-26T09:55:36.531Z,65.33
2023-03-26T09:56:38.374Z,68.10
2023-03-26T09:57:36.512Z,66.27
2023-03-26T09:58:36.569Z,65.37
2023-03-26T09:59:36.618Z,73.15
2023-03-26T10:00:36.517Z,65.45
2023-03-26T10:01:36.512Z,69.20
2023-03-26T10:02:45.587Z,71.52
2023-03-26T10:03:37.445Z,66.91
2023-03-26T10:04:36.528Z,69.03
2023-03-26T10:05:36.539Z,70.51
2023-03-26T10:06:36.480Z,71.54
2023-03-26T10:07:36.451Z,69.25
2023-03-26T10:08:36.428Z,66.56
2023-03-26T10:09:36.421Z,61.63
2023-03-26T10:10:36.414Z,67.43
2023-03-26T10:11:36.435Z,71.02
2023-03-26T10:12:36.402Z,68.15
2023-03-26T10:13:36.383Z,70.87
2023-03-26T10:14:36.416Z,63.68
2023-03-26T10:15:36.373Z,67.43
2023-03-26T10:16:36.400Z,71.18
2023-03-26T10:17:36.976Z,70.93
2023-03-26T10:18:36.344Z,70.70
2023-03-26T10:19:36.403Z,68.36
2023-03-26T10:20:36.313Z,64.34
2023-03-26T10:21:36.355Z,61.41
2023-03-26T10:22:36.291Z,70.84
2023-03-26T10:23:36.819Z,64.36
2023-03-26T10:24:36.913Z,66.09
2023-03-26T10:25:36.287Z,71.48
2023-03-26T10:26:36.292Z,70.59
2023-03-26T10:27:36.308Z,69.80
2023-03-26T10:28:36.304Z,67.01
2023-03-26T10:29:36.264Z,65.72
2023-03-26T10:30:36.348Z,65.70
2023-03-26T10:31:36.234Z,75.73
2023-03-26T10:32:37.063Z,70.61
2023-03-26T10:33:36.291Z,63.27
2023-03-26T10:34:36.233Z,71.67
2023-03-26T10:35:36.246Z,70.79
2023-03-26T10:36:36.196Z,74.05
2023-03-26T10:37:36.212Z,61.76
2023-03-26T10:38:36.265Z,73.45
2023-03-26T10:39:38.405Z,70.38
2023-03-26T10:40:36.254Z,64.26
2023-03-26T10:41:36.127Z,71.60
2023-03-26T10:42:36.226Z,60.02
2023-03-26T10:43:36.182Z,73.61
2023-03-26T10:44:36.117Z,69.14
2023-03-26T10:45:36.147Z,72.26
2023-03-26T10:46:36.245Z,67.97
2023-03-26T10:47:36.157Z,67.06
2023-03-26T10:48:36.134Z,70.18
2023-03-26T10:49:37.529Z,62.41
2023-03-26T10:50:36.096Z,72.09
2023-03-26T10:51:36.102Z,69.01
2023-03-26T10:52:36.112Z,65.89
2023-03-26T10:53:36.120Z,69.07
2023-03-26T10:54:36.105Z,66.67
2023-03-26T10:55:36.075Z,75.82
2023-03-26T10:56:36.141Z,70.52
2023-03-26T10:57:36.076Z,68.31
2023-03-26T10:58:48.319Z,71.50
2023-03-26T10:59:37.074Z,66.13
2023-03-26T11:00:36.141Z,65.02
2023-03-26T11:01:36.067Z,68.21
2023-03-26T11:02:36.104Z,65.93
2023-03-26T11:03:36.985Z,73.66
2023-03-26T11:04:36.970Z,70.65
2023-03-26T11:05:36.106Z,69.44
2023-03-26T11:06:36.017Z,64.38
2023-03-26T11:07:36.918Z,72.52
2023-03-26T11:08:36.035Z,68.65
2023-03-26T11:09:35.950Z,73.48
2023-03-26T11:10:35.970Z,73.16
2023-03-26T11:11:35.964Z,68.41
2023-03-26T11:12:36.008Z,72.04
2023-03-26T11:13:35.992Z,72.33
2023-03-26T11:14:35.982Z,69.03
2023-03-26T11:15:35.904Z,70.77
2023-03-26T11:16:35.943Z,69.93
2023-03-26T11:17:40.393Z,71.88
2023-03-26T11:18:37.519Z,72.52
2023-03-26T11:19:35.874Z,70.08
2023-03-26T11:20:35.874Z,73.62
2023-03-26T11:21:35.901Z,71.49
2023-03-26T11:22:35.865Z,72.33
2023-03-26T11:23:35.906Z,64.67
2023-03-26T11:24:35.828Z,72.29
2023-03-26T11:25:35.830Z,66.37
2023-03-26T11:26:37.598Z,67.11
2023-03-26T11:27:35.900Z,75.11
2023-03-26T11:28:35.924Z,66.34
2023-03-26T11:29:35.843Z,74.13
2023-03-26T11:30:36.793Z,64.93
2023-03-26T11:31:35.832Z,70.02
2023-03-26T11:32:35.833Z,71.58
2023-03-26T11:33:35.975Z,74.27
2023-03-26T11:34:35.764Z,72.59
2023-03-26T11:35:40.562Z,61.73
2023-03-26T11:36:36.795Z,67.26
2023-03-26T11:37:37.233Z,70.41
2023-03-26T11:38:35.796Z,72.34
2023-03-26T11:39:36.321Z,66.97
2023-03-26T11:40:35.722Z,71.38
2023-03-26T11:41:35.744Z,71.62
2023-03-26T11:42:35.768Z,70.17
2023-03-26T11:43:35.704Z,69.93
2023-03-26T11:44:35.774Z,66.29
2023-03-26T11:45:36.490Z,60.52
2023-03-26T11:46:35.720Z,70.85
2023-03-26T11:47:35.784Z,70.24
2023-03-26T11:48:37.037Z,70.10
2023-03-26T11:49:35.803Z,68.30
2023-03-26T11:50:35.664Z,69.96
2023-03-26T11:51:35.706Z,65.48
2023-03-26T11:52:35.644Z,69.05
2023-03-26T11:53:35.657Z,68.93
2023-03-26T11:54:35.737Z,69.74
2023-03-26T11:55:35.610Z,65.62
2023-03-26T11:56:35.707Z,62.66
2023-03-26T11:57:35.695Z,67.16
2023-03-26T11:58:35.715Z,68.23
2023-03-26T11:59:45.249Z,70.05
2023-03-26T12:00:37.589Z,66.46
2023-03-26T12:01:35.586Z,68.84
2023-03-26T12:02:35.745Z,62.85
2023-03-26T12:03:35.641Z,62.66
2023-03-26T12:04:35.666Z,69.65
2023-03-26T12:05:35.552Z,71.90
2023-03-26T12:06:35.577Z,64.81
2023-03-26T12:07:35.578Z,66.97
2023-03-26T12:08:35.561Z,64.01
2023-03-26T12:09:35.507Z,73.02
2023-03-26T12:10:35.508Z,72.51
2023-03-26T12:11:35.762Z,68.58
2023-03-26T12:12:35.592Z,69.07
2023-03-26T12:13:35.466Z,70.46
2023-03-26T12:14:35.590Z,66.47
2023-03-26T12:15:35.468Z,59.40
2023-03-26T12:16:35.480Z,69.06
2023-03-26T12:17:35.459Z,68.38
2023-03-26T12:18:35.486Z,67.37
2023-03-26T12:19:36.925Z,68.08
2023-03-26T12:20:35.806Z,67.13
2023-03-26T12:21:36.696Z,70.07
2023-03-26T12:22:35.579Z,70.17
2023-03-26T12:23:35.416Z,69.50
2023-03-26T12:24:35.775Z,73.17
2023-03-26T12:25:35.984Z,69.60
2023-03-26T12:26:36.022Z,68.27
2023-03-26T12:27:36.829Z,73.56
2023-03-26T12:28:36.485Z,71.42
2023-03-26T12:29:36.015Z,70.10
2023-03-26T12:30:35.711Z,69.70
2023-03-26T12:31:35.555Z,69.60
2023-03-26T12:32:43.363Z,68.41
2023-03-26T12:33:37.903Z,73.27
2023-03-26T12:34:35.717Z,55.08
2023-03-26T12:35:35.987Z,69.50
2023-03-26T12:36:36.107Z,71.99
2023-03-26T12:37:35.621Z,70.90
2023-03-26T12:38:35.299Z,67.92
2023-03-26T12:40:09.079Z,68.44
2023-03-26T12:40:37.073Z,63.44
2023-03-26T12:44:42.609Z,71.36
2023-03-26T12:44:46.781Z,67.45
2023-03-26T12:44:47.905Z,63.95
2023-03-26T12:44:55.266Z,75.79
2023-03-26T12:45:37.111Z,70.48
2023-03-26T12:47:55.561Z,72.50
2023-03-26T12:48:00.391Z,70.75
2023-03-26T12:48:36.801Z,68.63
2023-03-26T12:49:35.451Z,70.03
2023-03-26T12:50:35.870Z,72.34
2023-03-26T12:51:35.369Z,72.63
2023-03-26T12:52:35.274Z,68.91
2023-03-26T12:53:35.135Z,66.60
2023-03-26T12:54:35.567Z,72.84
2023-03-26T12:55:35.955Z,73.37
2023-03-26T12:56:35.179Z,72.60
2023-03-26T12:57:35.201Z,72.34
2023-03-26T12:58:35.193Z,65.93
2023-03-26T12:59:35.756Z,72.55
2023-03-26T13:00:35.113Z,70.80
2023-03-26T13:01:35.219Z,69.93
2023-03-26T13:02:35.181Z,59.57
2023-03-26T13:03:36.009Z,69.09
2023-03-26T13:04:35.088Z,69.40
2023-03-26T13:05:35.050Z,71.27
2023-03-26T13:06:59.615Z,64.73
2023-03-26T13:07:36.073Z,71.74
2023-03-26T13:08:35.044Z,68.05